Time;durP1;ratioP1;P1;durP2;ratioP2;P2;SDS_P1;SDS_P2;PMS_P1;PMS_P2;Temp;Humidity;BMP_temperature;BMP_pressure;BME280_temperature;BME280_humidity;BME280_pressure;Samples;Min_cycle;Max_cycle;Signal;HPM_P1;HPM_P2
2021/06/17 00:02:16;;;;;;;6.37;5.97;;;;;;;19.81;84.76;100230.94;5052336;28;20186;-71
2021/06/17 00:04:42;;;;;;;6.53;6.03;;;;;;;19.89;84.29;100233.44;5052303;28;20199;-71
2021/06/17 00:07:07;;;;;;;6.57;6.17;;;;;;;19.99;83.56;100236.72;5052088;28;20182;-72
2021/06/17 00:09:32;;;;;;;7.43;6.93;;;;;;;19.60;85.24;100235.06;5052074;28;20209;-72
2021/06/17 00:12:01;;;;;;;8.40;7.63;;;;;;;19.73;85.07;100232.06;5052189;28;20203;-72
2021/06/17 00:14:32;;;;;;;7.40;6.90;;;;;;;19.86;84.29;100231.44;5051777;28;20175;-72
2021/06/17 00:16:58;;;;;;;7.03;6.53;;;;;;;19.96;83.53;100232.69;5051182;28;20170;-71
2021/06/17 00:19:24;;;;;;;8.03;7.43;;;;;;;20.05;82.90;100229.63;5051592;28;20168;-71
2021/06/17 00:21:50;;;;;;;8.10;7.50;;;;;;;20.09;82.77;100222.13;5051775;28;20312;-71
2021/06/17 00:24:17;;;;;;;7.03;6.53;;;;;;;19.90;83.59;100228.69;5051471;28;20180;-72
2021/06/17 00:26:42;;;;;;;8.10;7.60;;;;;;;19.87;83.22;100226.69;5051132;28;20257;-72
2021/06/17 00:29:07;;;;;;;7.87;7.37;;;;;;;19.91;82.34;100224.72;5051364;28;20631;-72
2021/06/17 00:31:33;;;;;;;7.57;7.00;;;;;;;19.88;82.54;100229.06;5051708;28;20220;-72
2021/06/17 00:33:58;;;;;;;8.13;7.53;;;;;;;19.90;82.31;100217.59;5051285;28;20176;-72
2021/06/17 00:36:23;;;;;;;8.27;7.70;;;;;;;19.67;83.36;100226.03;5050885;28;20608;-72
2021/06/17 00:38:49;;;;;;;7.67;7.17;;;;;;;19.61;83.92;100227.56;5051199;28;20666;-72
2021/06/17 00:41:14;;;;;;;7.50;7.00;;;;;;;19.83;82.96;100231.41;5051115;28;20174;-72
2021/06/17 00:43:40;;;;;;;7.47;6.80;;;;;;;19.77;83.02;100230.13;5051159;28;20200;-72
2021/06/17 00:46:05;;;;;;;7.90;7.20;;;;;;;19.77;83.07;100221.81;5066424;28;20274;-72
2021/06/17 00:48:31;;;;;;;7.80;7.20;;;;;;;19.69;83.29;100229.25;5050777;28;20203;-72
2021/06/17 00:50:59;;;;;;;8.23;7.63;;;;;;;19.63;83.77;100227.19;5033192;28;20544;-72
2021/06/17 00:53:28;;;;;;;7.97;7.37;;;;;;;19.31;85.08;100227.53;5050752;28;20175;-72
2021/06/17 00:55:53;;;;;;;7.40;6.90;;;;;;;19.08;86.35;100230.38;5050154;28;20175;-72
2021/06/17 00:58:20;;;;;;;7.97;7.47;;;;;;;19.07;86.65;100220.47;5050515;28;20194;-72
2021/06/17 01:00:45;;;;;;;8.23;7.57;;;;;;;19.10;86.72;100224.50;5050731;28;20199;-72
2021/06/17 01:03:12;;;;;;;8.23;7.70;;;;;;;19.16;86.56;100236.84;5050819;28;20187;-72
2021/06/17 01:05:38;;;;;;;8.60;7.97;;;;;;;19.07;86.38;100225.22;5050763;28;20176;-72
2021/06/17 01:08:06;;;;;;;8.20;7.70;;;;;;;19.07;86.84;100223.25;5050348;28;20199;-72
2021/06/17 01:11:09;;;;;;;8.30;7.70;;;;;;;19.33;85.80;100225.19;5066147;28;20658;-73
2021/06/17 01:13:55;;;;;;;7.80;7.20;;;;;;;19.50;84.73;100216.31;5051028;28;20170;-72
2021/06/17 01:16:35;;;;;;;7.40;6.77;;;;;;;19.70;83.65;100214.22;5050249;28;20171;-72
2021/06/17 01:19:31;;;;;;;8.10;7.60;;;;;;;19.81;82.56;100208.78;5050974;28;20221;-71
2021/06/17 01:22:11;;;;;;;6.90;6.40;;;;;;;19.79;81.88;100216.66;5050661;28;20172;-72
2021/06/17 01:24:39;;;;;;;7.03;6.53;;;;;;;19.89;81.15;100207.69;5050670;28;20160;-72
2021/06/17 01:27:16;;;;;;;7.37;6.77;;;;;;;19.90;80.55;100206.50;5050848;28;20262;-72
2021/06/17 01:29:47;;;;;;;7.37;6.87;;;;;;;19.88;79.96;100204.13;5050641;28;20499;-72
2021/06/17 01:32:14;;;;;;;7.53;6.83;;;;;;;20.03;79.37;100204.25;5032654;28;20172;-72
2021/06/17 01:34:40;;;;;;;6.10;5.70;;;;;;;20.02;79.18;100202.66;5050984;28;20262;-72
2021/06/17 01:37:11;;;;;;;6.33;5.93;;;;;;;20.00;79.01;100194.72;5032359;28;20175;-72
2021/06/17 01:39:39;;;;;;;7.07;6.57;;;;;;;20.01;79.06;100201.06;5050839;28;20534;-72
2021/06/17 01:42:06;;;;;;;7.50;6.97;;;;;;;20.11;78.72;100201.19;5050693;28;20177;-72
2021/06/17 01:44:34;;;;;;;6.97;6.57;;;;;;;20.19;78.62;100191.72;5050470;28;20190;-72
2021/06/17 01:47:01;;;;;;;8.57;6.17;;;;;;;20.22;78.54;100190.16;5050090;28;20176;-72
2021/06/17 01:49:27;;;;;;;8.87;6.07;;;;;;;20.17;78.50;100196.06;5050446;28;20184;-72
2021/06/17 01:51:55;;;;;;;7.10;6.60;;;;;;;19.99;78.93;100192.34;5050189;28;20180;-72
2021/06/17 01:54:24;;;;;;;6.20;5.77;;;;;;;19.95;78.77;100188.72;5050256;28;20179;-72
2021/06/17 01:56:51;;;;;;;7.10;6.60;;;;;;;19.82;79.87;100188.22;5050233;28;20175;-72
2021/06/17 01:59:19;;;;;;;6.33;5.83;;;;;;;19.88;79.25;100181.13;5050633;28;20186;-72
2021/06/17 02:01:45;;;;;;;6.80;6.30;;;;;;;19.93;78.57;100189.09;5050127;28;20193;-72
2021/06/17 02:04:12;;;;;;;6.57;6.07;;;;;;;20.04;78.37;100194.75;5051174;28;20190;-72
2021/06/17 02:06:41;;;;;;;6.93;6.43;;;;;;;20.04;78.18;100192.78;5051431;28;20179;-72
2021/06/17 02:09:07;;;;;;;7.20;6.63;;;;;;;19.95;78.79;100197.03;5054075;28;20203;-72
2021/06/17 02:11:33;;;;;;;7.07;6.57;;;;;;;19.78;79.63;100187.34;5054096;28;20175;-71
2021/06/17 02:13:59;;;;;;;7.50;6.90;;;;;;;19.50;80.82;100193.34;5036831;28;20178;-71
2021/06/17 02:16:27;;;;;;;7.37;6.80;;;;;;;19.30;81.89;100193.50;5053557;28;20175;-72
2021/06/17 02:18:55;;;;;;;8.23;7.63;;;;;;;19.18;82.77;100198.47;5054026;28;20171;-72
2021/06/17 02:21:21;;;;;;;7.93;7.37;;;;;;;19.15;83.31;100194.50;5054400;28;20274;-72
2021/06/17 02:23:55;;;;;;;8.07;7.40;;;;;;;19.17;83.53;100185.81;5053812;28;20175;-72
2021/06/17 02:26:21;;;;;;;6.97;6.53;;;;;;;19.13;83.61;100184.97;5053526;28;20186;-71
2021/06/17 02:28:48;;;;;;;7.80;7.30;;;;;;;19.15;83.55;100188.97;5053674;28;20286;-72
2021/06/17 02:31:17;;;;;;;7.07;6.57;;;;;;;19.09;83.74;100176.59;5053941;28;20627;-72
2021/06/17 02:33:46;;;;;;;7.77;7.27;;;;;;;19.02;84.17;100182.84;5053603;28;20531;-71
2021/06/17 02:36:12;;;;;;;8.50;7.87;;;;;;;18.97;84.70;100176.84;5053298;28;20531;-71
2021/06/17 02:38:41;;;;;;;7.47;6.97;;;;;;;18.95;84.27;100177.22;5053401;28;20184;-72
2021/06/17 02:41:11;;;;;;;7.97;7.33;;;;;;;18.87;84.43;100178.28;5053453;28;20195;-72
2021/06/17 02:43:40;;;;;;;6.90;6.40;;;;;;;18.88;84.40;100179.09;5068763;28;20180;-72
2021/06/17 02:46:06;;;;;;;7.43;6.73;;;;;;;18.93;84.27;100181.53;5053483;28;20179;-72
2021/06/17 02:48:32;;;;;;;6.33;5.93;;;;;;;19.01;83.34;100183.22;5053335;28;20697;-72
2021/06/17 02:50:57;;;;;;;7.33;6.83;;;;;;;18.93;83.82;100181.53;5053311;28;20176;-72
2021/06/17 02:53:23;;;;;;;6.53;6.13;;;;;;;18.85;84.04;100182.59;5052870;28;20175;-72
2021/06/17 02:55:49;;;;;;;7.17;6.57;;;;;;;18.80;84.69;100186.47;5053122;28;20175;-72
2021/06/17 02:58:49;;;;;;;7.40;6.90;;;;;;;18.78;85.04;100177.75;5052945;28;20175;-72
2021/06/17 03:01:18;;;;;;;8.77;7.90;;;;;;;18.46;86.17;100179.22;5052971;28;20198;-72
2021/06/17 03:03:49;;;;;;;7.30;6.80;;;;;;;18.48;86.25;100171.31;5052932;28;20595;-71
2021/06/17 03:06:30;;;;;;;7.43;6.70;;;;;;;18.58;85.96;100176.25;5052924;28;20501;-72
2021/06/17 03:08:58;;;;;;;7.63;7.13;;;;;;;18.46;86.06;100180.00;5052874;28;20272;-72
2021/06/17 03:11:31;;;;;;;7.47;6.97;;;;;;;18.53;86.16;100180.13;5052875;28;20167;-73
2021/06/17 03:14:01;;;;;;;7.50;6.77;;;;;;;18.63;85.80;100184.22;5052660;28;20168;-71
2021/06/17 03:16:29;;;;;;;7.20;6.70;;;;;;;18.69;85.70;100180.00;5052062;28;20203;-72
2021/06/17 03:19:00;;;;;;;6.20;5.80;;;;;;;18.65;85.63;100187.44;5061346;28;20605;-71
2021/06/17 03:21:28;;;;;;;6.57;6.13;;;;;;;18.46;86.54;100184.75;5064805;28;20698;-72
2021/06/17 03:23:56;;;;;;;7.97;7.27;;;;;;;18.11;88.08;100186.53;5073058;28;20186;-72
2021/06/17 03:26:23;;;;;;;7.27;6.77;;;;;;;17.99;88.84;100174.88;5069335;28;20186;-72
2021/06/17 03:28:49;;;;;;;7.83;7.23;;;;;;;18.02;89.31;100179.66;5052832;28;20293;-71
2021/06/17 03:31:17;;;;;;;7.87;7.27;;;;;;;17.90;89.48;100177.84;5052904;28;20193;-72
2021/06/17 03:33:44;;;;;;;8.80;7.83;;;;;;;17.94;90.00;100173.22;5052639;28;20171;-72
2021/06/17 03:36:11;;;;;;;7.53;7.03;;;;;;;18.15;89.03;100181.06;5052823;28;20258;-72
2021/06/17 03:38:39;;;;;;;8.03;7.43;;;;;;;18.27;88.91;100178.13;5053410;28;20614;-72
2021/06/17 03:41:05;;;;;;;7.77;7.27;;;;;;;18.32;88.34;100169.50;5052891;28;20551;-72
2021/06/17 03:43:31;;;;;;;7.70;7.20;;;;;;;18.39;87.99;100171.59;5052787;28;20178;-72
2021/06/17 03:46:00;;;;;;;8.17;7.37;;;;;;;18.43;87.99;100172.44;5052725;28;20592;-72
2021/06/17 03:48:26;;;;;;;7.67;7.13;;;;;;;18.38;88.07;100181.06;5052411;28;20624;-72
2021/06/17 03:50:52;;;;;;;7.70;7.13;;;;;;;18.18;88.76;100179.53;5052890;28;20171;-72
2021/06/17 03:53:20;;;;;;;8.07;7.57;;;;;;;17.92;90.21;100178.28;5052215;28;20179;-72
2021/06/17 03:55:47;;;;;;;8.07;7.37;;;;;;;17.99;90.56;100180.41;5052472;28;20266;-72
2021/06/17 03:58:13;;;;;;;7.90;7.30;;;;;;;18.05;90.57;100187.19;5052662;28;20607;-71
2021/06/17 04:00:39;;;;;;;8.93;8.33;;;;;;;18.19;90.11;100190.22;5067793;28;20282;-72
2021/06/17 04:03:07;;;;;;;8.30;7.70;;;;;;;18.28;89.43;100190.78;5052261;28;20176;-72
2021/06/17 04:05:34;;;;;;;9.07;8.37;;;;;;;18.34;89.21;100189.28;5052307;28;20194;-72
2021/06/17 04:08:01;;;;;;;8.37;7.67;;;;;;;18.34;89.66;100177.44;5052000;28;20604;-72
2021/06/17 04:10:27;;;;;;;7.90;7.30;;;;;;;18.60;88.96;100173.88;5052127;28;20207;-72
2021/06/17 04:12:58;;;;;;;8.47;7.77;;;;;;;18.67;88.47;100174.84;5051922;28;20654;-72
2021/06/17 04:15:25;;;;;;;7.83;7.23;;;;;;;18.82;88.17;100175.06;5051922;28;20198;-72
2021/06/17 04:18:02;;;;;;;7.40;6.90;;;;;;;19.02;87.36;100173.75;5051949;28;20182;-72
2021/06/17 04:20:40;;;;;;;7.80;7.30;;;;;;;19.17;86.71;100186.59;5052041;28;20178;-72
2021/06/17 04:23:07;;;;;;;7.47;6.97;;;;;;;19.33;86.86;100189.19;5052013;28;20167;-72
2021/06/17 04:25:35;;;;;;;10.83;7.40;;;;;;;19.38;86.81;100185.28;5051860;28;20769;-72
2021/06/17 04:28:05;;;;;;;7.90;7.30;;;;;;;19.53;86.85;100184.28;5051688;28;20622;-72
2021/06/17 04:30:33;;;;;;;7.13;6.63;;;;;;;19.65;86.53;100177.69;5050952;28;20532;-72
2021/06/17 04:33:01;;;;;;;7.63;7.13;;;;;;;19.84;86.00;100172.00;5052006;28;20503;-72
2021/06/17 04:35:29;;;;;;;7.80;7.20;;;;;;;19.99;85.46;100182.03;5051480;28;20175;-72
2021/06/17 04:37:55;;;;;;;7.43;6.97;;;;;;;19.98;86.41;100174.91;5051695;28;20230;-72
2021/06/17 04:40:22;;;;;;;8.97;8.37;;;;;;;20.05;85.71;100180.50;5051743;28;20622;-72
2021/06/17 04:42:50;;;;;;;8.37;7.77;;;;;;;20.16;85.44;100169.50;5051729;28;20182;-72
2021/06/17 04:45:15;;;;;;;8.37;7.83;;;;;;;20.28;83.67;100173.97;5051575;28;20584;-72
2021/06/17 04:47:49;;;;;;;9.03;8.33;;;;;;;20.28;83.47;100166.44;5051471;28;20196;-71
2021/06/17 04:50:16;;;;;;;8.07;7.47;;;;;;;20.29;84.07;100167.25;5066690;28;20186;-72
2021/06/17 04:52:50;;;;;;;8.63;8.13;;;;;;;20.29;84.84;100170.81;5051069;28;20171;-72
2021/06/17 04:55:16;;;;;;;8.50;7.90;;;;;;;20.35;84.70;100162.94;5050678;28;20171;-72
2021/06/17 04:57:41;;;;;;;9.10;8.30;;;;;;;20.41;84.69;100158.63;5050877;28;20175;-72
2021/06/17 05:00:07;;;;;;;8.93;8.13;;;;;;;20.46;84.91;100167.41;5050758;28;20183;-72
2021/06/17 05:02:32;;;;;;;8.53;7.60;;;;;;;20.56;84.84;100176.22;5051064;28;20171;-72
2021/06/17 05:04:58;;;;;;;7.40;6.90;;;;;;;20.65;84.08;100173.88;5050618;28;20233;-72
2021/06/17 05:12:41;;;;;;;7.13;6.73;;;;;;;20.98;81.26;100172.91;5051058;28;20221;-72
2021/06/17 05:15:07;;;;;;;7.47;6.97;;;;;;;21.06;81.14;100177.31;5050546;28;20536;-72
2021/06/17 05:17:33;;;;;;;6.87;6.37;;;;;;;21.16;81.04;100168.25;5050320;28;20175;-72
2021/06/17 05:19:58;;;;;;;7.43;6.93;;;;;;;21.30;80.72;100171.13;5050715;28;20171;-72
2021/06/17 05:22:24;;;;;;;8.13;7.60;;;;;;;21.43;80.77;100176.34;5050706;28;20171;-72
2021/06/17 05:24:49;;;;;;;8.47;7.83;;;;;;;21.48;80.70;100181.50;5050543;28;20184;-72
2021/06/17 05:27:15;;;;;;;7.87;7.37;;;;;;;21.57;80.52;100188.28;5050306;28;20177;-72
2021/06/17 05:29:40;;;;;;;6.90;6.40;;;;;;;21.63;80.34;100194.25;5050684;28;20175;-72
2021/06/17 05:32:06;;;;;;;8.50;7.37;;;;;;;21.69;80.49;100198.25;5050874;28;20171;-72
2021/06/17 05:34:31;;;;;;;7.33;6.87;;;;;;;21.76;79.71;100203.03;5050483;28;20326;-72
2021/06/17 05:36:57;;;;;;;7.80;7.30;;;;;;;21.85;79.38;100201.50;5050229;28;20178;-72
2021/06/17 05:39:22;;;;;;;8.80;7.37;;;;;;;21.97;79.36;100208.66;5050498;28;20233;-72
2021/06/17 05:41:47;;;;;;;8.43;7.83;;;;;;;22.05;78.83;100209.47;5051179;28;20654;-72
2021/06/17 05:44:13;;;;;;;8.67;8.07;;;;;;;22.15;78.35;100205.94;5054523;28;20615;-72
2021/06/17 05:46:40;;;;;;;9.57;8.80;;;;;;;22.20;78.14;100211.13;5054257;28;20890;-72
2021/06/17 05:49:06;;;;;;;8.77;8.07;;;;;;;22.26;78.45;100215.09;5054406;28;20258;-72
2021/06/17 05:51:32;;;;;;;8.93;8.20;;;;;;;22.27;79.29;100217.47;5036166;28;20553;-72
2021/06/17 05:53:57;;;;;;;10.13;9.40;;;;;;;22.32;78.73;100219.09;5055700;28;20175;-72
2021/06/17 05:56:22;;;;;;;10.27;9.47;;;;;;;22.38;79.62;100223.06;5073242;28;20715;-73
2021/06/17 05:58:48;;;;;;;10.17;9.10;;;;;;;22.42;78.70;100223.03;5058721;28;20574;-73
2021/06/17 06:01:13;;;;;;;8.80;8.00;;;;;;;22.54;79.64;100214.28;5046506;28;20205;-73
2021/06/17 06:03:39;;;;;;;8.57;7.93;;;;;;;22.60;80.03;100212.72;5054439;28;20172;-73
2021/06/17 06:06:04;;;;;;;8.60;8.07;;;;;;;22.70;79.07;100211.91;5054244;28;20309;-72
2021/06/17 06:08:30;;;;;;;8.00;7.47;;;;;;;22.76;78.68;100220.66;5053995;28;20280;-72
2021/06/17 06:10:55;;;;;;;8.53;7.77;;;;;;;22.83;78.61;100212.31;5054083;28;20672;-72
2021/06/17 06:13:21;;;;;;;7.53;7.03;;;;;;;22.94;78.39;100215.09;5053982;28;20173;-72
2021/06/17 06:15:46;;;;;;;8.20;7.50;;;;;;;23.05;77.92;100210.28;5053878;28;20175;-72
2021/06/17 06:18:15;;;;;;;7.80;7.20;;;;;;;23.10;75.31;100219.03;5054064;28;20174;-72
2021/06/17 06:20:44;;;;;;;7.07;6.67;;;;;;;23.23;74.31;100222.19;5053868;28;20225;-72
2021/06/17 06:23:10;;;;;;;7.77;7.27;;;;;;;23.34;75.45;100217.38;5053964;28;20202;-72
2021/06/17 06:25:36;;;;;;;6.67;6.17;;;;;;;23.44;74.50;100219.34;5053793;28;20171;-72
2021/06/17 06:28:03;;;;;;;6.97;6.37;;;;;;;23.58;72.56;100214.91;5053288;28;20203;-72
2021/06/17 06:30:28;;;;;;;6.27;5.80;;;;;;;23.67;73.07;100215.28;5053578;28;20172;-72
2021/06/17 06:32:54;;;;;;;7.07;6.57;;;;;;;23.81;73.82;100211.63;5053483;28;20256;-72
2021/06/17 06:35:20;;;;;;;6.93;6.47;;;;;;;23.89;73.44;100215.97;5051981;28;20171;-72
2021/06/17 06:37:50;;;;;;;6.27;5.83;;;;;;;24.04;74.04;100223.06;5053038;28;20332;-72
2021/06/17 06:40:23;;;;;;;6.30;5.90;;;;;;;24.14;72.05;100219.38;5053030;28;20178;-72
2021/06/17 06:42:49;;;;;;;6.67;6.17;;;;;;;24.24;72.65;100223.31;5053250;28;20765;-72
2021/06/17 06:45:14;;;;;;;7.23;5.70;;;;;;;24.35;69.28;100229.66;5053015;28;20178;-73
2021/06/17 06:47:40;;;;;;;6.17;5.77;;;;;;;24.43;68.71;100224.78;5052809;28;20198;-72
2021/06/17 06:50:07;;;;;;;6.13;5.73;;;;;;;24.53;67.35;100232.28;5052771;28;20268;-72
2021/06/17 06:52:32;;;;;;;5.10;4.80;;;;;;;24.59;66.69;100228.66;5052953;28;20650;-73
2021/06/17 06:54:59;;;;;;;5.60;5.03;;;;;;;24.69;67.19;100224.16;5051576;28;20175;-72
2021/06/17 06:57:26;;;;;;;5.37;5.07;;;;;;;24.87;67.30;100224.00;5056417;28;20176;-73
2021/06/17 06:59:51;;;;;;;5.90;5.23;;;;;;;24.99;64.98;100217.88;5053113;28;20195;-72
2021/06/17 07:02:16;;;;;;;5.50;5.10;;;;;;;25.02;65.25;100221.88;5051713;28;20210;-72
2021/06/17 07:04:42;;;;;;;5.93;5.53;;;;;;;25.02;64.52;100224.69;5052410;28;20183;-72
2021/06/17 07:07:07;;;;;;;5.67;5.30;;;;;;;25.04;64.52;100227.88;5052483;28;20527;-72
2021/06/17 07:09:32;;;;;;;5.57;4.57;;;;;;;25.13;63.99;100225.38;5052820;28;20182;-72
2021/06/17 07:11:58;;;;;;;5.07;4.77;;;;;;;25.16;64.00;100227.31;5053033;28;20186;-74
2021/06/17 07:14:23;;;;;;;5.60;5.10;;;;;;;25.23;62.71;100227.25;5052913;28;20186;-74
2021/06/17 07:16:48;;;;;;;5.07;4.77;;;;;;;25.32;64.25;100226.78;5052657;28;20183;-73
2021/06/17 07:19:14;;;;;;;4.87;4.57;;;;;;;25.41;64.32;100222.25;5052836;28;20201;-79
2021/06/17 07:21:39;;;;;;;6.17;5.77;;;;;;;25.49;63.78;100215.38;5052741;28;20179;-72
2021/06/17 07:24:05;;;;;;;5.50;5.10;;;;;;;25.56;63.12;100222.88;5052748;28;20581;-72
2021/06/17 07:26:31;;;;;;;4.90;4.60;;;;;;;25.64;62.41;100226.38;5052538;28;20278;-71
2021/06/17 07:28:57;;;;;;;6.00;4.50;;;;;;;25.73;61.56;100237.88;5052560;28;20203;-72
2021/06/17 07:31:23;;;;;;;4.90;4.60;;;;;;;25.82;60.51;100229.75;5052688;28;20175;-71
2021/06/17 07:33:49;;;;;;;3.90;3.70;;;;;;;25.86;59.90;100240.91;5052870;28;20179;-72
2021/06/17 07:36:14;;;;;;;4.80;4.50;;;;;;;25.89;59.28;100240.06;5052443;28;20587;-72
2021/06/17 07:38:40;;;;;;;4.00;3.70;;;;;;;25.94;59.52;100236.81;5052409;28;20261;-72
2021/06/17 07:41:06;;;;;;;4.03;3.83;;;;;;;26.02;59.23;100241.84;5067820;28;20743;-71
2021/06/17 07:43:32;;;;;;;4.87;4.57;;;;;;;26.05;59.48;100243.84;5052414;28;20197;-72
2021/06/17 07:45:59;;;;;;;6.60;4.53;;;;;;;26.22;60.22;100247.59;5053622;28;20179;-72
2021/06/17 07:48:24;;;;;;;4.20;4.00;;;;;;;26.31;58.80;100241.44;5053975;28;20253;-72
2021/06/17 07:50:50;;;;;;;5.07;4.77;;;;;;;26.42;59.55;100256.13;5052274;28;20198;-72
2021/06/17 07:53:15;;;;;;;4.60;4.30;;;;;;;26.55;58.77;100253.50;5051994;28;20233;-72
2021/06/17 07:55:40;;;;;;;3.80;3.60;;;;;;;26.54;55.82;100249.91;5052137;28;20175;-72
2021/06/17 07:58:06;;;;;;;4.00;3.80;;;;;;;26.61;57.34;100252.59;5051965;28;20179;-72
2021/06/17 08:00:31;;;;;;;4.37;4.07;;;;;;;26.64;55.56;100254.56;5052116;28;20187;-71
2021/06/17 08:02:58;;;;;;;4.87;4.53;;;;;;;26.76;59.27;100253.13;5051967;28;20179;-71
2021/06/17 08:05:23;;;;;;;4.67;4.37;;;;;;;26.85;59.56;100249.78;5033810;28;20661;-71
2021/06/17 08:07:49;;;;;;;4.90;4.60;;;;;;;26.89;58.36;100253.31;5051679;28;20195;-71
2021/06/17 08:10:14;;;;;;;4.93;4.67;;;;;;;26.98;57.80;100251.56;5051744;28;20186;-71
2021/06/17 08:12:39;;;;;;;5.13;4.83;;;;;;;27.04;57.27;100251.88;5033892;28;20191;-71
2021/06/17 08:15:06;;;;;;;7.07;5.27;;;;;;;27.15;57.76;100246.88;5059316;28;20190;-72
2021/06/17 08:17:32;;;;;;;4.83;4.53;;;;;;;27.16;58.06;100245.63;5050098;28;20532;-71
2021/06/17 08:19:57;;;;;;;5.07;4.77;;;;;;;27.15;58.24;100240.47;5051401;28;20204;-71
2021/06/17 08:22:25;;;;;;;5.77;5.37;;;;;;;27.20;57.97;100251.22;5051424;28;20653;-71
2021/06/17 08:24:51;;;;;;;5.97;5.33;;;;;;;27.33;58.62;100242.91;5033606;28;20186;-71
2021/06/17 08:27:16;;;;;;;5.07;4.73;;;;;;;27.44;57.79;100246.31;5051288;28;20179;-71
2021/06/17 08:29:42;;;;;;;4.73;4.43;;;;;;;27.49;57.54;100246.63;5033510;28;20186;-71
2021/06/17 08:32:07;;;;;;;5.23;4.93;;;;;;;27.63;59.14;100242.72;5051706;28;20171;-71
2021/06/17 08:34:33;;;;;;;4.37;4.17;;;;;;;27.68;56.39;100250.66;5051276;28;20601;-71
2021/06/17 08:36:58;;;;;;;3.97;3.77;;;;;;;27.78;55.33;100252.47;5051202;28;20220;-73
2021/06/17 08:39:24;;;;;;;4.80;4.50;;;;;;;27.85;55.08;100248.69;5051237;28;20589;-73
2021/06/17 08:41:50;;;;;;;5.30;4.90;;;;;;;27.97;55.02;100255.66;5051253;28;20207;-73
2021/06/17 08:44:15;;;;;;;3.97;3.77;;;;;;;28.03;52.83;100248.28;5051101;28;20175;-73
2021/06/17 08:46:41;;;;;;;5.00;4.60;;;;;;;28.11;52.71;100246.91;5050458;28;20238;-73
2021/06/17 08:49:08;;;;;;;3.90;3.70;;;;;;;28.16;52.11;100244.38;5050666;28;20204;-72
2021/06/17 08:51:35;;;;;;;3.93;3.67;;;;;;;28.15;49.58;100239.19;5050263;28;20176;-73
2021/06/17 08:54:00;;;;;;;3.67;3.43;;;;;;;28.20;52.71;100235.84;5050714;28;20230;-73
2021/06/17 08:56:26;;;;;;;4.53;4.23;;;;;;;28.26;53.38;100231.34;5050339;28;20187;-72
2021/06/17 08:58:56;;;;;;;3.93;3.67;;;;;;;28.38;51.14;100233.47;5065956;28;20183;-73
2021/06/17 09:01:22;;;;;;;4.10;3.90;;;;;;;28.43;51.60;100223.69;5050411;28;20336;-72
2021/06/17 09:03:47;;;;;;;4.13;3.93;;;;;;;28.54;52.69;100221.44;5050320;28;20674;-73
2021/06/17 09:06:15;;;;;;;4.50;4.20;;;;;;;28.60;49.95;100218.84;5050115;28;20886;-73
2021/06/17 09:08:41;;;;;;;4.40;4.10;;;;;;;28.70;50.67;100217.81;5050402;28;20249;-73
2021/06/17 09:11:20;;;;;;;3.87;3.67;;;;;;;28.74;50.15;100219.28;5050526;28;20179;-73
2021/06/17 09:13:46;;;;;;;3.63;3.43;;;;;;;28.71;50.29;100202.50;5050244;28;20181;-73
2021/06/17 09:16:22;;;;;;;4.03;3.73;;;;;;;28.84;50.98;100206.19;5049663;28;20173;-72
2021/06/17 09:18:47;;;;;;;3.87;3.67;;;;;;;28.89;51.85;100207.69;5050285;28;20177;-73
2021/06/17 09:21:13;;;;;;;4.53;4.20;;;;;;;29.08;50.62;100205.97;5050303;28;20554;-72
2021/06/17 09:23:48;;;;;;;3.67;3.27;;;;;;;29.16;49.19;100202.53;5050260;28;20175;-72
2021/06/17 09:26:22;;;;;;;3.27;3.07;;;;;;;29.21;46.86;100218.06;5049957;28;20190;-73
2021/06/17 09:28:54;;;;;;;3.17;3.00;;;;;;;29.33;48.36;100206.06;5050518;28;20200;-72
2021/06/17 09:31:25;;;;;;;4.00;3.70;;;;;;;29.42;47.02;100211.84;5050383;28;20177;-73
2021/06/17 09:33:51;;;;;;;3.63;3.43;;;;;;;29.51;48.12;100212.03;5050193;28;20258;-73
2021/06/17 09:36:24;;;;;;;3.50;3.30;;;;;;;29.62;47.39;100209.66;5049887;28;20185;-72
2021/06/17 09:38:52;;;;;;;4.10;3.83;;;;;;;29.50;47.64;100213.22;5050504;28;20176;-72
2021/06/17 09:41:30;;;;;;;3.23;3.03;;;;;;;29.48;46.84;100207.25;5049971;28;20184;-72
2021/06/17 09:43:56;;;;;;;3.27;3.07;;;;;;;29.59;47.82;100204.13;5060987;28;20647;-72
2021/06/17 09:46:22;;;;;;;3.37;3.17;;;;;;;29.53;46.06;100208.75;5067668;28;20183;-72
2021/06/17 09:48:49;;;;;;;3.90;3.60;;;;;;;29.60;46.63;100208.53;5070404;28;20580;-73
2021/06/17 09:51:38;;;;;;;3.80;3.60;;;;;;;29.82;46.67;100209.47;5058181;28;20176;-72
2021/06/17 09:54:21;;;;;;;2.67;2.47;;;;;;;29.87;44.21;100200.44;5050708;28;20315;-70
2021/06/17 09:56:55;;;;;;;3.57;3.30;;;;;;;29.91;46.21;100203.16;5050254;28;20177;-71
2021/06/17 09:59:39;;;;;;;3.40;3.20;;;;;;;29.95;47.09;100203.06;5050331;28;20185;-71
2021/06/17 10:02:08;;;;;;;3.20;3.00;;;;;;;29.97;44.19;100201.38;5050342;28;20748;-71
2021/06/17 10:04:34;;;;;;;3.50;3.30;;;;;;;30.13;44.99;100195.66;5050250;28;20201;-71
2021/06/17 10:07:00;;;;;;;3.63;3.43;;;;;;;30.19;43.64;100198.69;5050220;28;20180;-71
2021/06/17 10:09:25;;;;;;;3.40;3.20;;;;;;;30.25;43.90;100205.34;5050138;28;20585;-71
2021/06/17 10:11:52;;;;;;;3.23;3.03;;;;;;;30.37;43.42;100196.06;5050629;28;20178;-71
2021/06/17 10:14:18;;;;;;;3.17;2.97;;;;;;;30.63;44.46;100198.84;5049917;28;20640;-71
2021/06/17 10:16:44;;;;;;;3.20;3.00;;;;;;;30.78;43.39;100197.91;5050074;28;20182;-71
2021/06/17 10:19:11;;;;;;;3.23;3.03;;;;;;;30.84;43.04;100189.66;5050083;28;20175;-71
2021/06/17 10:21:36;;;;;;;3.23;3.03;;;;;;;30.90;42.36;100192.69;5050105;28;20218;-71
2021/06/17 10:24:04;;;;;;;3.20;3.00;;;;;;;30.85;42.10;100185.59;5052347;28;20309;-71
2021/06/17 10:26:40;;;;;;;3.23;3.03;;;;;;;30.83;41.28;100184.47;5052331;28;20178;-71
2021/06/17 10:29:06;;;;;;;3.43;3.23;;;;;;;31.01;41.34;100188.25;5052729;28;20251;-71
2021/06/17 10:31:39;;;;;;;4.57;3.10;;;;;;;31.26;40.99;100175.28;5053265;28;20175;-71
2021/06/17 10:34:22;;;;;;;3.00;2.80;;;;;;;31.08;40.40;100182.31;5053442;28;20171;-71
2021/06/17 10:37:07;;;;;;;2.60;2.30;;;;;;;31.33;41.09;100189.13;5058027;28;20702;-71
2021/06/17 10:39:52;;;;;;;2.50;2.40;;;;;;;31.49;40.31;100193.78;5044143;28;20241;-71
2021/06/17 10:42:42;;;;;;;2.60;2.50;;;;;;;31.38;39.10;100194.94;5042548;28;20179;-71
2021/06/17 10:45:34;;;;;;;2.63;2.53;;;;;;;31.59;40.84;100189.75;5051853;28;20176;-72
2021/06/17 10:48:06;;;;;;;2.60;2.40;;;;;;;31.64;40.16;100201.25;5052751;28;20214;-71
2021/06/17 10:50:45;;;;;;;5.47;2.53;;;;;;;31.59;37.07;100190.53;5053118;28;20179;-71
2021/06/17 10:53:17;;;;;;;2.40;2.30;;;;;;;31.62;36.22;100188.81;5052554;28;20617;-71
2021/06/17 10:55:53;;;;;;;2.27;2.17;;;;;;;31.79;35.96;100183.75;5052829;28;20237;-72
2021/06/17 10:58:51;;;;;;;2.40;2.30;;;;;;;31.83;37.83;100171.09;5052587;28;20168;-72
2021/06/17 11:01:32;;;;;;;2.77;2.67;;;;;;;31.95;36.52;100181.47;5052689;28;20203;-73
2021/06/17 11:04:34;;;;;;;2.60;2.40;;;;;;;31.92;35.94;100173.94;5052456;28;20310;-72
2021/06/17 11:07:02;;;;;;;3.10;2.90;;;;;;;32.04;35.86;100182.78;5051757;28;20175;-73
2021/06/17 11:09:45;;;;;;;2.27;2.17;;;;;;;32.02;35.18;100179.63;5060069;28;20217;-73
2021/06/17 11:12:17;;;;;;;2.63;2.53;;;;;;;32.15;35.65;100181.09;5053185;28;20216;-72
2021/06/17 11:14:44;;;;;;;2.70;2.50;;;;;;;32.26;36.08;100177.81;5052868;28;20173;-73
2021/06/17 11:17:31;;;;;;;2.50;2.40;;;;;;;32.26;34.26;100181.44;5052643;28;20585;-73
2021/06/17 11:20:22;;;;;;;1.97;1.87;;;;;;;32.28;36.08;100168.91;5052675;28;20179;-72
2021/06/17 11:22:59;;;;;;;2.13;2.03;;;;;;;32.24;34.10;100160.53;5051508;28;20164;-72
2021/06/17 11:25:27;;;;;;;2.17;2.07;;;;;;;32.34;34.80;100155.72;5050868;28;20170;-73
2021/06/17 11:28:01;;;;;;;2.47;2.37;;;;;;;32.34;36.59;100164.97;5052231;28;20196;-72
2021/06/17 11:30:38;;;;;;;2.53;2.40;;;;;;;31.98;36.93;100156.38;5052533;28;20210;-72
2021/06/17 11:33:16;;;;;;;2.70;2.37;;;;;;;32.07;33.70;100151.53;5052636;28;20221;-72
2021/06/17 11:35:48;;;;;;;2.43;2.33;;;;;;;32.05;34.59;100144.78;5052553;28;20171;-72
2021/06/17 11:38:22;;;;;;;3.33;2.70;;;;;;;32.25;34.66;100139.47;5052369;28;20172;-73